createdAt,value
2022-08-28T00:02:16.792Z,100.00
2022-08-28T00:04:45.141Z,100.00
2022-08-28T00:07:14.962Z,100.00
2022-08-28T00:09:43.890Z,100.00
2022-08-28T00:12:12.931Z,100.00
2022-08-28T00:14:41.632Z,100.00
2022-08-28T00:17:09.922Z,100.00
2022-08-28T00:19:38.917Z,100.00
2022-08-28T00:22:07.576Z,100.00
2022-08-28T00:24:37.661Z,100.00
2022-08-28T00:27:24.042Z,100.00
2022-08-28T00:29:52.441Z,100.00
2022-08-28T00:32:23.415Z,100.00
2022-08-28T00:34:52.184Z,100.00
2022-08-28T00:37:20.849Z,100.00
2022-08-28T00:39:54.531Z,100.00
2022-08-28T00:42:22.791Z,100.00
2022-08-28T00:44:51.081Z,100.00
2022-08-28T00:47:19.722Z,100.00
2022-08-28T00:49:53.941Z,100.00
2022-08-28T00:52:22.911Z,100.00
2022-08-28T00:54:59.706Z,100.00
2022-08-28T00:57:31.612Z,100.00
2022-08-28T01:00:00.181Z,100.00
2022-08-28T01:02:29.125Z,100.00
2022-08-28T01:04:57.479Z,100.00
2022-08-28T01:07:25.951Z,100.00
2022-08-28T01:09:56.899Z,100.00
2022-08-28T01:12:29.229Z,100.00
2022-08-28T01:15:01.272Z,100.00
2022-08-28T01:17:32.693Z,100.00
2022-08-28T01:20:06.380Z,100.00
2022-08-28T01:22:38.673Z,100.00
2022-08-28T01:25:12.333Z,100.00
2022-08-28T01:27:42.071Z,100.00
2022-08-28T01:30:12.320Z,100.00
2022-08-28T01:32:43.610Z,100.00
2022-08-28T01:35:15.782Z,100.00
2022-08-28T01:37:44.602Z,100.00
2022-08-28T01:40:18.917Z,100.00
2022-08-28T01:42:48.052Z,100.00
2022-08-28T01:45:18.277Z,100.00
2022-08-28T01:47:47.212Z,100.00
2022-08-28T01:50:18.841Z,100.00
2022-08-28T01:52:47.412Z,100.00
2022-08-28T01:55:21.548Z,100.00
2022-08-28T01:57:54.113Z,100.00
2022-08-28T02:00:25.860Z,100.00
2022-08-28T02:02:56.094Z,100.00
2022-08-28T02:05:25.581Z,100.00
2022-08-28T02:07:54.202Z,100.00
2022-08-28T02:10:25.561Z,100.00
2022-08-28T02:12:59.208Z,100.00
2022-08-28T02:15:29.961Z,100.00
2022-08-28T02:17:58.451Z,100.00
2022-08-28T02:20:29.110Z,100.00
2022-08-28T02:22:58.001Z,100.00
2022-08-28T02:25:28.922Z,100.00
2022-08-28T02:27:57.293Z,100.00
2022-08-28T02:30:25.970Z,100.00
2022-08-28T02:32:54.472Z,100.00
2022-08-28T02:35:24.340Z,100.00
2022-08-28T02:37:55.495Z,100.00
2022-08-28T02:40:25.679Z,100.00
2022-08-28T02:42:55.329Z,100.00
2022-08-28T02:45:23.781Z,100.00
2022-08-28T02:47:53.872Z,100.00
2022-08-28T02:50:22.752Z,100.00
2022-08-28T02:52:51.401Z,100.00
2022-08-28T02:55:20.910Z,100.00
2022-08-28T02:57:50.042Z,100.00
2022-08-28T03:00:22.769Z,100.00
2022-08-28T03:02:52.810Z,100.00
2022-08-28T03:05:26.882Z,100.00
2022-08-28T03:07:56.143Z,100.00
2022-08-28T03:10:25.053Z,100.00
2022-08-28T03:12:53.784Z,100.00
2022-08-28T03:15:23.532Z,100.00
2022-08-28T03:17:51.862Z,100.00
2022-08-28T03:20:20.651Z,100.00
2022-08-28T03:23:06.525Z,100.00
2022-08-28T03:25:35.031Z,100.00
2022-08-28T03:28:03.615Z,100.00
2022-08-28T03:30:33.759Z,100.00
2022-08-28T03:33:02.268Z,100.00
2022-08-28T03:35:31.291Z,100.00
2022-08-28T03:38:00.361Z,100.00
2022-08-28T03:40:28.981Z,100.00
2022-08-28T03:42:58.021Z,100.00
2022-08-28T03:45:27.839Z,100.00
2022-08-28T03:47:57.625Z,100.00
2022-08-28T03:50:26.532Z,100.00
2022-08-28T03:52:57.500Z,100.00
2022-08-28T03:55:26.492Z,100.00
2022-08-28T03:57:55.172Z,100.00
2022-08-28T04:00:23.501Z,100.00
2022-08-28T04:02:52.141Z,100.00
2022-08-28T04:05:21.921Z,100.00
2022-08-28T04:07:53.931Z,100.00
2022-08-28T04:10:22.292Z,100.00
2022-08-28T04:12:51.000Z,100.00
2022-08-28T04:15:20.702Z,100.00
2022-08-28T04:17:49.613Z,100.00
2022-08-28T04:20:17.810Z,100.00
2022-08-28T04:22:47.530Z,100.00
2022-08-28T04:25:16.353Z,100.00
2022-08-28T04:27:44.782Z,100.00
2022-08-28T04:30:13.610Z,100.00
2022-08-28T04:32:42.306Z,100.00
2022-08-28T04:35:13.143Z,100.00
2022-08-28T04:37:43.221Z,100.00
2022-08-28T04:40:16.086Z,100.00
2022-08-28T04:42:45.502Z,100.00
2022-08-28T04:45:13.871Z,100.00
2022-08-28T04:47:42.182Z,100.00
2022-08-28T04:50:12.989Z,100.00
2022-08-28T04:52:43.253Z,100.00
2022-08-28T04:55:13.610Z,100.00
2022-08-28T04:57:43.063Z,100.00
2022-08-28T05:00:12.411Z,100.00
2022-08-28T05:02:41.030Z,100.00
2022-08-28T05:05:09.880Z,100.00
2022-08-28T05:07:38.607Z,100.00
2022-08-28T05:10:07.569Z,100.00
2022-08-28T05:12:38.913Z,100.00
2022-08-28T05:15:09.009Z,100.00
2022-08-28T05:17:37.221Z,100.00
2022-08-28T05:20:06.442Z,100.00
2022-08-28T05:22:34.781Z,100.00
2022-08-28T05:25:03.302Z,100.00
2022-08-28T05:27:31.450Z,100.00
2022-08-28T05:30:02.177Z,100.00
2022-08-28T05:32:30.805Z,100.00
2022-08-28T05:34:58.944Z,100.00
2022-08-28T05:37:27.816Z,100.00
2022-08-28T05:39:56.367Z,100.00
2022-08-28T05:42:30.609Z,100.00
2022-08-28T05:45:01.523Z,100.00
2022-08-28T05:47:32.663Z,100.00
2022-08-28T05:50:01.051Z,100.00
2022-08-28T05:52:30.812Z,100.00
2022-08-28T05:54:59.302Z,100.00
2022-08-28T05:57:27.492Z,100.00
2022-08-28T05:59:56.090Z,100.00
2022-08-28T06:02:26.041Z,100.00
2022-08-28T06:04:54.982Z,100.00
2022-08-28T06:07:23.721Z,100.00
2022-08-28T06:09:51.999Z,100.00
2022-08-28T06:12:21.110Z,100.00
2022-08-28T06:14:49.952Z,100.00
2022-08-28T06:17:23.499Z,100.00
2022-08-28T06:19:53.853Z,100.00
2022-08-28T06:22:22.404Z,100.00
2022-08-28T06:24:51.193Z,100.00
2022-08-28T06:27:19.434Z,100.00
2022-08-28T06:29:47.901Z,100.00
2022-08-28T06:32:16.135Z,100.00
2022-08-28T06:34:44.473Z,100.00
2022-08-28T06:37:14.501Z,100.00
2022-08-28T06:39:42.962Z,100.00
2022-08-28T06:42:11.362Z,100.00
2022-08-28T06:44:40.132Z,100.00
2022-08-28T06:47:08.951Z,100.00
2022-08-28T06:49:37.287Z,100.00
2022-08-28T06:52:06.527Z,100.00
2022-08-28T06:54:36.382Z,100.00
2022-08-28T06:57:06.441Z,100.00
2022-08-28T06:59:35.323Z,100.00
2022-08-28T07:02:04.358Z,100.00
2022-08-28T07:04:33.204Z,100.00
2022-08-28T07:07:01.832Z,100.00
2022-08-28T07:09:30.420Z,100.00
2022-08-28T07:12:00.153Z,100.00
2022-08-28T07:14:28.951Z,100.00
2022-08-28T07:16:58.071Z,100.00
2022-08-28T07:19:26.741Z,100.00
2022-08-28T07:21:55.404Z,100.00
2022-08-28T07:24:25.254Z,100.00
2022-08-28T07:26:54.962Z,100.00
2022-08-28T07:29:26.552Z,100.00
2022-08-28T07:31:57.956Z,100.00
2022-08-28T07:34:28.394Z,100.00
2022-08-28T07:36:58.671Z,100.00
2022-08-28T07:39:29.173Z,100.00
2022-08-28T07:41:59.471Z,100.00
2022-08-28T07:44:47.647Z,100.00
2022-08-28T07:47:19.319Z,100.00
2022-08-28T07:49:48.979Z,100.00
2022-08-28T07:52:18.901Z,100.00
2022-08-28T07:54:48.252Z,100.00
2022-08-28T07:57:18.279Z,100.00
2022-08-28T07:59:52.240Z,100.00
2022-08-28T08:02:22.590Z,100.00
2022-08-28T08:04:52.890Z,100.00
2022-08-28T08:07:22.529Z,100.00
2022-08-28T08:09:51.102Z,100.00
2022-08-28T08:12:20.971Z,100.00
2022-08-28T08:14:52.501Z,100.00
2022-08-28T08:17:21.852Z,100.00
2022-08-28T08:19:51.231Z,100.00
2022-08-28T08:22:21.602Z,100.00
2022-08-28T08:24:51.842Z,100.00
2022-08-28T08:27:21.683Z,100.00
2022-08-28T08:29:51.241Z,100.00
2022-08-28T08:32:21.643Z,100.00
2022-08-28T08:34:52.042Z,100.00
2022-08-28T08:37:20.522Z,100.00
2022-08-28T08:39:50.793Z,100.00
2022-08-28T08:42:27.220Z,100.00
2022-08-28T08:44:59.432Z,100.00
2022-08-28T08:47:36.563Z,100.00
2022-08-28T08:50:08.130Z,100.00
2022-08-28T08:52:48.914Z,100.00
2022-08-28T08:55:23.219Z,100.00
2022-08-28T08:57:58.525Z,100.00
2022-08-28T09:00:28.794Z,100.00
2022-08-28T09:03:04.696Z,100.00
2022-08-28T09:05:43.515Z,100.00
2022-08-28T09:08:23.249Z,100.00
2022-08-28T09:11:01.184Z,100.00
2022-08-28T09:13:38.991Z,100.00
2022-08-28T09:16:19.174Z,100.00
2022-08-28T09:18:49.261Z,100.00
2022-08-28T09:21:29.171Z,100.00
2022-08-28T09:24:01.373Z,100.00
2022-08-28T09:26:34.713Z,100.00
2022-08-28T09:29:06.612Z,100.00
2022-08-28T09:31:38.691Z,100.00
2022-08-28T09:34:26.512Z,100.00
2022-08-28T09:36:56.243Z,100.00
2022-08-28T09:39:26.861Z,100.00
2022-08-28T09:42:21.284Z,100.00
2022-08-28T09:44:59.696Z,100.00
2022-08-28T09:47:46.969Z,100.00
2022-08-28T09:50:26.191Z,100.00
2022-08-28T09:52:57.752Z,100.00
2022-08-28T09:55:37.982Z,100.00
2022-08-28T09:58:07.352Z,100.00
2022-08-28T10:00:40.242Z,100.00
2022-08-28T10:03:16.993Z,100.00
2022-08-28T10:05:56.872Z,100.00
2022-08-28T10:08:45.941Z,100.00
2022-08-28T10:11:25.380Z,100.00
2022-08-28T10:14:02.630Z,100.00
2022-08-28T10:16:41.633Z,100.00
2022-08-28T10:19:22.109Z,100.00
2022-08-28T10:21:55.711Z,100.00
2022-08-28T10:24:38.514Z,100.00
2022-08-28T10:27:19.029Z,100.00
2022-08-28T10:29:56.069Z,100.00
2022-08-28T10:32:44.013Z,100.00
2022-08-28T10:35:17.291Z,100.00
2022-08-28T10:37:58.192Z,100.00
2022-08-28T10:40:30.876Z,94.90
2022-08-28T10:43:06.373Z,89.93
2022-08-28T10:45:36.123Z,89.75
2022-08-28T10:48:11.362Z,90.35
2022-08-28T10:50:47.353Z,89.39
2022-08-28T10:53:20.381Z,90.51
2022-08-28T10:55:57.042Z,87.57
2022-08-28T10:58:28.247Z,84.48
2022-08-28T11:01:02.288Z,85.15
2022-08-28T11:03:35.742Z,86.54
2022-08-28T11:06:10.222Z,87.99
2022-08-28T11:08:40.711Z,90.17
2022-08-28T11:11:14.897Z,90.00
2022-08-28T11:13:57.272Z,86.45
2022-08-28T11:16:36.758Z,85.09
2022-08-28T11:19:28.865Z,88.18
2022-08-28T11:22:05.272Z,81.63
2022-08-28T11:24:45.414Z,83.12
2022-08-28T11:27:34.249Z,82.96
2022-08-28T11:30:21.750Z,79.41
2022-08-28T11:33:11.801Z,78.93
2022-08-28T11:35:48.401Z,80.16
2022-08-28T11:38:54.143Z,75.88
2022-08-28T11:41:27.283Z,78.25
2022-08-28T11:44:29.181Z,78.58
2022-08-28T11:47:36.091Z,78.71
2022-08-28T11:50:17.171Z,74.50
2022-08-28T11:53:05.001Z,77.71
2022-08-28T11:55:51.624Z,77.62
2022-08-28T11:58:27.778Z,79.62
2022-08-28T12:01:04.602Z,76.91
2022-08-28T12:03:38.249Z,75.01
2022-08-28T12:06:08.459Z,71.64
2022-08-28T12:09:07.047Z,66.50
2022-08-28T12:11:51.742Z,66.04
2022-08-28T12:14:57.232Z,67.73
2022-08-28T12:17:31.487Z,61.23
2022-08-28T12:20:09.981Z,64.51
2022-08-28T12:22:47.780Z,62.33
2022-08-28T12:25:27.161Z,62.63
2022-08-28T12:27:58.359Z,58.50
2022-08-28T12:30:32.387Z,59.92
2022-08-28T12:33:13.064Z,62.97
2022-08-28T12:35:43.719Z,58.85
2022-08-28T12:38:20.805Z,61.27
2022-08-28T12:40:53.281Z,60.70
2022-08-28T12:43:32.358Z,61.15
2022-08-28T12:46:04.622Z,60.10
2022-08-28T12:48:36.344Z,60.45
2022-08-28T12:51:07.679Z,62.44
2022-08-28T12:53:41.555Z,67.01
2022-08-28T12:56:11.493Z,62.53
2022-08-28T12:58:42.504Z,63.38
2022-08-28T13:01:15.744Z,60.01
2022-08-28T13:03:48.362Z,60.90
2022-08-28T13:06:24.702Z,61.67
2022-08-28T13:08:58.520Z,61.89
2022-08-28T13:11:27.236Z,60.41
2022-08-28T13:13:55.582Z,58.92
2022-08-28T13:16:43.242Z,57.53
2022-08-28T13:19:27.573Z,55.97
2022-08-28T13:22:00.789Z,55.96
2022-08-28T13:24:37.299Z,55.34
2022-08-28T13:27:10.589Z,53.34
2022-08-28T13:29:42.412Z,54.57
2022-08-28T13:32:17.477Z,54.92
2022-08-28T13:35:07.722Z,53.90
2022-08-28T13:37:44.890Z,55.25
2022-08-28T13:40:38.117Z,55.83
2022-08-28T13:43:06.994Z,57.51
2022-08-28T13:45:42.380Z,56.77
2022-08-28T13:48:13.114Z,53.98
2022-08-28T13:50:47.180Z,53.52
2022-08-28T13:53:17.739Z,51.51
2022-08-28T13:55:46.903Z,52.06
2022-08-28T13:58:15.796Z,50.30
2022-08-28T14:00:47.103Z,51.53
2022-08-28T14:03:33.221Z,53.85
2022-08-28T14:06:03.969Z,55.92
2022-08-28T14:08:32.370Z,58.66
2022-08-28T14:11:00.952Z,58.76
2022-08-28T14:13:29.532Z,57.65
2022-08-28T14:15:59.020Z,56.61
2022-08-28T14:18:28.763Z,54.68
2022-08-28T14:20:57.113Z,56.55
2022-08-28T14:23:26.768Z,54.52
2022-08-28T14:25:55.020Z,56.05
2022-08-28T14:28:23.671Z,52.87
2022-08-28T14:30:54.129Z,51.28
2022-08-28T14:33:22.631Z,53.87
2022-08-28T14:35:51.242Z,52.23
2022-08-28T14:38:19.479Z,51.21
2022-08-28T14:40:49.490Z,53.33
2022-08-28T14:43:18.351Z,53.13
2022-08-28T14:45:47.818Z,52.95
2022-08-28T14:48:18.022Z,54.24
2022-08-28T14:50:48.482Z,56.88
2022-08-28T14:53:17.185Z,58.68
2022-08-28T14:55:50.422Z,57.91
2022-08-28T14:58:20.571Z,57.85
2022-08-28T15:00:51.488Z,57.11
2022-08-28T15:03:21.705Z,58.12
2022-08-28T15:06:01.131Z,58.46
2022-08-28T15:08:30.167Z,58.40
2022-08-28T15:10:59.961Z,56.47
2022-08-28T15:13:31.576Z,56.31
2022-08-28T15:16:05.671Z,58.54
2022-08-28T15:18:45.802Z,58.34
2022-08-28T15:21:18.321Z,56.67
2022-08-28T15:23:46.724Z,57.47
2022-08-28T15:26:16.481Z,56.90
2022-08-28T15:28:44.795Z,57.11
2022-08-28T15:31:13.786Z,56.71
2022-08-28T15:33:45.325Z,55.86
2022-08-28T15:36:14.715Z,57.84
2022-08-28T15:39:00.894Z,57.80
2022-08-28T15:41:31.838Z,57.70
2022-08-28T15:44:03.135Z,58.03
2022-08-28T15:46:34.431Z,58.73
2022-08-28T15:49:03.762Z,57.37
2022-08-28T15:51:36.541Z,59.46
2022-08-28T15:54:07.263Z,57.63
2022-08-28T15:56:36.881Z,58.23
2022-08-28T15:59:05.349Z,59.04
2022-08-28T16:01:36.366Z,59.91
2022-08-28T16:04:05.572Z,57.61
2022-08-28T16:06:34.281Z,58.52
2022-08-28T16:09:03.210Z,59.36
2022-08-28T16:11:32.145Z,60.13
2022-08-28T16:14:04.751Z,59.54
2022-08-28T16:16:33.799Z,60.56
2022-08-28T16:19:02.171Z,59.97
2022-08-28T16:21:31.151Z,59.19
2022-08-28T16:24:00.261Z,60.09
2022-08-28T16:26:29.069Z,56.72
2022-08-28T16:28:57.921Z,58.08
2022-08-28T16:31:28.687Z,57.94
2022-08-28T16:33:57.520Z,57.45
2022-08-28T16:36:26.342Z,56.85
2022-08-28T16:39:00.348Z,56.66
2022-08-28T16:41:32.863Z,56.80
2022-08-28T16:44:01.262Z,58.18
2022-08-28T16:46:31.144Z,58.61
2022-08-28T16:49:00.811Z,59.11
2022-08-28T16:51:30.028Z,58.82
2022-08-28T16:53:58.661Z,59.71
2022-08-28T16:56:27.071Z,58.59
2022-08-28T16:58:56.133Z,57.66
2022-08-28T17:01:25.439Z,58.04
2022-08-28T17:03:56.171Z,61.12
2022-08-28T17:06:28.522Z,62.52
2022-08-28T17:08:57.673Z,59.82
2022-08-28T17:11:26.871Z,60.68
2022-08-28T17:13:55.926Z,59.14
2022-08-28T17:16:25.982Z,59.91
2022-08-28T17:18:56.502Z,61.18
2022-08-28T17:21:43.811Z,60.21
2022-08-28T17:24:13.642Z,62.95
2022-08-28T17:26:42.771Z,62.13
2022-08-28T17:29:12.640Z,62.84
2022-08-28T17:31:41.624Z,66.11
2022-08-28T17:34:12.338Z,62.71
2022-08-28T17:36:43.352Z,61.82
2022-08-28T17:39:14.642Z,64.12
2022-08-28T17:41:43.506Z,64.30
2022-08-28T17:44:12.451Z,65.73
2022-08-28T17:46:41.182Z,64.54
2022-08-28T17:49:11.349Z,64.10
2022-08-28T17:51:43.314Z,64.17
2022-08-28T17:54:13.509Z,65.27
2022-08-28T17:56:41.849Z,63.18
2022-08-28T17:59:11.291Z,65.26
2022-08-28T18:01:39.901Z,68.01
2022-08-28T18:04:09.069Z,68.06
2022-08-28T18:06:39.398Z,67.17
2022-08-28T18:09:08.982Z,68.31
2022-08-28T18:11:37.933Z,69.93
2022-08-28T18:14:07.135Z,69.51
2022-08-28T18:16:37.665Z,70.93
2022-08-28T18:19:07.996Z,71.23
2022-08-28T18:21:36.529Z,73.42
2022-08-28T18:24:06.371Z,76.79
2022-08-28T18:26:35.260Z,80.11
2022-08-28T18:29:03.695Z,83.47
2022-08-28T18:31:32.088Z,83.63
2022-08-28T18:34:00.530Z,82.58
2022-08-28T18:36:29.451Z,83.93
2022-08-28T18:38:57.929Z,86.72
2022-08-28T18:41:32.639Z,85.92
2022-08-28T18:44:13.574Z,85.59
2022-08-28T18:46:42.745Z,89.45
2022-08-28T18:49:12.196Z,91.60
2022-08-28T18:51:42.211Z,94.15
2022-08-28T18:54:10.972Z,95.53
2022-08-28T18:56:42.069Z,98.98
2022-08-28T18:59:11.591Z,100.00
2022-08-28T19:01:39.959Z,100.00
2022-08-28T19:04:08.889Z,100.00
2022-08-28T19:06:37.653Z,100.00
2022-08-28T19:09:06.545Z,100.00
2022-08-28T19:11:36.253Z,100.00
2022-08-28T19:14:07.499Z,100.00
2022-08-28T19:16:36.331Z,100.00
2022-08-28T19:19:04.680Z,100.00
2022-08-28T19:21:33.540Z,100.00
2022-08-28T19:24:02.130Z,100.00
2022-08-28T19:26:30.582Z,100.00
2022-08-28T19:28:59.009Z,100.00
2022-08-28T19:31:29.687Z,100.00
2022-08-28T19:33:58.728Z,100.00
2022-08-28T19:36:29.569Z,100.00
2022-08-28T19:38:58.682Z,100.00
2022-08-28T19:41:27.549Z,100.00
2022-08-28T19:43:56.262Z,100.00
2022-08-28T19:46:24.571Z,100.00
2022-08-28T19:48:55.861Z,100.00
2022-08-28T19:51:25.801Z,100.00
2022-08-28T19:53:58.624Z,100.00
2022-08-28T19:56:28.292Z,100.00
2022-08-28T19:58:58.551Z,100.00
2022-08-28T20:01:30.012Z,100.00
2022-08-28T20:04:01.300Z,100.00
2022-08-28T20:06:33.090Z,100.00
2022-08-28T20:09:02.958Z,100.00
2022-08-28T20:11:31.361Z,100.00
2022-08-28T20:14:04.482Z,100.00
2022-08-28T20:16:35.332Z,100.00
2022-08-28T20:19:08.040Z,100.00
2022-08-28T20:21:37.270Z,100.00
2022-08-28T20:24:07.548Z,100.00
2022-08-28T20:26:36.522Z,100.00
2022-08-28T20:29:05.431Z,100.00
2022-08-28T20:31:36.099Z,100.00
2022-08-28T20:34:06.759Z,100.00
2022-08-28T20:36:34.925Z,100.00
2022-08-28T20:39:07.154Z,100.00
2022-08-28T20:41:37.016Z,100.00
2022-08-28T20:44:06.863Z,100.00
2022-08-28T20:46:40.779Z,100.00
2022-08-28T20:49:12.120Z,100.00
2022-08-28T20:51:58.968Z,100.00
2022-08-28T20:54:31.640Z,100.00
2022-08-28T20:57:03.522Z,100.00
2022-08-28T20:59:39.661Z,100.00
2022-08-28T21:02:10.908Z,100.00
2022-08-28T21:04:42.563Z,100.00
2022-08-28T21:07:11.839Z,100.00
2022-08-28T21:10:05.423Z,100.00
2022-08-28T21:12:29.467Z,100.00
2022-08-28T21:14:58.216Z,100.00
2022-08-28T21:17:29.355Z,100.00
2022-08-28T21:20:03.109Z,100.00
2022-08-28T21:22:35.379Z,100.00
2022-08-28T21:25:05.681Z,100.00
2022-08-28T21:27:34.462Z,100.00
2022-08-28T21:30:03.131Z,100.00
2022-08-28T21:32:33.991Z,100.00
2022-08-28T21:35:05.021Z,100.00
2022-08-28T21:37:33.540Z,100.00
2022-08-28T21:40:03.267Z,100.00
2022-08-28T21:42:31.833Z,100.00
2022-08-28T21:45:00.116Z,100.00
2022-08-28T21:47:29.199Z,100.00
2022-08-28T21:49:58.551Z,100.00
2022-08-28T21:52:31.462Z,100.00
2022-08-28T21:55:02.098Z,100.00
2022-08-28T21:57:31.069Z,100.00
2022-08-28T21:59:59.731Z,100.00
2022-08-28T22:02:29.045Z,100.00
2022-08-28T22:04:57.658Z,100.00
2022-08-28T22:07:26.106Z,100.00
2022-08-28T22:09:55.588Z,100.00
2022-08-28T22:12:24.299Z,100.00
2022-08-28T22:14:52.491Z,100.00
2022-08-28T22:17:21.318Z,100.00
2022-08-28T22:19:49.534Z,100.00
2022-08-28T22:22:36.022Z,100.00
2022-08-28T22:25:06.264Z,100.00
2022-08-28T22:27:34.668Z,100.00
2022-08-28T22:30:03.379Z,100.00
2022-08-28T22:32:31.829Z,100.00
2022-08-28T22:35:00.257Z,100.00
2022-08-28T22:37:28.474Z,100.00
2022-08-28T22:39:58.195Z,100.00
2022-08-28T22:42:27.612Z,100.00
2022-08-28T22:44:55.938Z,100.00
2022-08-28T22:47:24.543Z,100.00
2022-08-28T22:49:55.751Z,100.00
2022-08-28T22:52:24.640Z,100.00
2022-08-28T22:54:53.197Z,100.00
2022-08-28T22:57:21.750Z,100.00
2022-08-28T22:59:51.748Z,100.00
2022-08-28T23:02:21.031Z,100.00
2022-08-28T23:04:52.034Z,100.00
2022-08-28T23:07:20.943Z,100.00
2022-08-28T23:09:49.351Z,100.00
2022-08-28T23:12:17.875Z,100.00
2022-08-28T23:14:48.576Z,100.00
2022-08-28T23:17:19.122Z,100.00
2022-08-28T23:19:48.258Z,100.00
2022-08-28T23:22:18.000Z,100.00
2022-08-28T23:24:48.678Z,100.00
2022-08-28T23:27:35.721Z,100.00
2022-08-28T23:30:08.034Z,100.00
2022-08-28T23:32:38.030Z,100.00
2022-08-28T23:35:09.210Z,100.00
2022-08-28T23:37:37.743Z,100.00
2022-08-28T23:40:10.242Z,100.00
2022-08-28T23:42:38.920Z,100.00
2022-08-28T23:45:08.388Z,100.00
2022-08-28T23:47:40.485Z,100.00
2022-08-28T23:50:12.568Z,100.00
2022-08-28T23:52:41.122Z,100.00
2022-08-28T23:55:14.392Z,100.00
2022-08-28T23:57:43.618Z,100.00
